Time;durP1;ratioP1;P1;durP2;ratioP2;P2;SDS_P1;SDS_P2;PMS_P1;PMS_P2;Temp;Humidity;BMP_temperature;BMP_pressure;BME280_temperature;BME280_humidity;BME280_pressure;Samples;Min_cycle;Max_cycle;Signal;HPM_P1;HPM_P2
2023/06/08 00:01:54;;;;;;;14.17;5.37;;;12.60;99.90;;;;;;5114084;28;20744;-70
2023/06/08 00:04:25;;;;;;;13.27;5.83;;;12.60;99.90;;;;;;5114525;28;20093;-70
2023/06/08 00:06:52;;;;;;;14.13;5.23;;;12.50;99.90;;;;;;5114540;28;20274;-69
2023/06/08 00:09:18;;;;;;;13.77;6.57;;;12.50;99.90;;;;;;5095663;28;20301;-70
2023/06/08 00:11:44;;;;;;;14.53;5.90;;;12.50;99.90;;;;;;5095874;28;20368;-69
2023/06/08 00:14:10;;;;;;;17.93;5.80;;;12.40;99.90;;;;;;5095653;28;20285;-70
2023/06/08 00:16:37;;;;;;;15.47;5.97;;;12.50;99.90;;;;;;5113849;28;20375;-69
2023/06/08 00:19:03;;;;;;;16.70;5.50;;;12.40;99.90;;;;;;5114596;28;20043;-69
2023/06/08 00:21:29;;;;;;;17.30;5.90;;;12.40;99.90;;;;;;5113837;28;20737;-69
2023/06/08 00:23:55;;;;;;;14.67;6.03;;;12.40;99.90;;;;;;5096604;28;20058;-69
2023/06/08 00:26:22;;;;;;;20.23;7.47;;;12.40;99.90;;;;;;5113764;28;20334;-70
2023/06/08 00:28:48;;;;;;;21.23;8.73;;;12.40;99.90;;;;;;5095769;28;20303;-70
2023/06/08 00:31:18;;;;;;;16.40;9.07;;;12.40;99.90;;;;;;5113638;28;20277;-70
2023/06/08 00:33:43;;;;;;;16.40;9.03;;;12.40;99.90;;;;;;5114199;28;20315;-70
2023/06/08 00:36:10;;;;;;;17.00;9.13;;;12.40;99.90;;;;;;5120328;28;20278;-70
2023/06/08 00:38:36;;;;;;;18.93;8.80;;;12.40;99.90;;;;;;5120476;28;20040;-70
2023/06/08 00:41:02;;;;;;;17.77;9.77;;;12.30;99.90;;;;;;5120446;28;20288;-70
2023/06/08 00:43:27;;;;;;;19.63;9.53;;;12.40;99.90;;;;;;5102441;28;20467;-70
2023/06/08 00:45:55;;;;;;;21.73;10.77;;;12.40;99.90;;;;;;5120676;28;20051;-70
2023/06/08 00:48:22;;;;;;;15.97;9.17;;;12.30;99.90;;;;;;5102157;28;20050;-70
2023/06/08 00:50:50;;;;;;;17.73;9.80;;;12.40;99.90;;;;;;5120335;28;20334;-70
2023/06/08 00:53:16;;;;;;;17.97;9.73;;;12.40;99.90;;;;;;5120315;28;20273;-70
2023/06/08 00:55:43;;;;;;;17.93;9.50;;;12.40;99.90;;;;;;5120807;28;20456;-70
2023/06/08 00:58:13;;;;;;;17.53;8.63;;;12.40;99.90;;;;;;5120266;28;20277;-70
2023/06/08 01:00:42;;;;;;;22.43;9.17;;;12.30;99.90;;;;;;5120254;28;20273;-70
2023/06/08 01:03:08;;;;;;;15.17;8.37;;;12.30;99.90;;;;;;5120171;28;20368;-70
2023/06/08 01:05:38;;;;;;;15.47;7.97;;;12.30;99.90;;;;;;5102246;28;20397;-70
2023/06/08 01:08:31;;;;;;;19.07;8.50;;;12.30;99.90;;;;;;5120326;28;20329;-69
2023/06/08 01:11:11;;;;;;;17.87;7.40;;;12.30;99.90;;;;;;5120098;28;20277;-69
2023/06/08 01:13:49;;;;;;;16.00;6.57;;;12.30;99.90;;;;;;5120237;28;20273;-69
2023/06/08 01:16:17;;;;;;;17.37;7.00;;;12.40;99.90;;;;;;5120697;28;20277;-69
2023/06/08 01:18:44;;;;;;;14.90;5.33;;;12.40;99.90;;;;;;5120082;28;20366;-69
2023/06/08 01:21:35;;;;;;;16.10;5.57;;;12.30;99.90;;;;;;5120042;28;20288;-69
2023/06/08 01:24:12;;;;;;;15.23;5.57;;;12.30;99.90;;;;;;5120121;28;20330;-69
2023/06/08 01:26:42;;;;;;;15.93;5.80;;;12.30;99.90;;;;;;5120828;28;20286;-69
2023/06/08 01:29:09;;;;;;;12.23;5.30;;;12.20;99.90;;;;;;5119769;28;20780;-69
2023/06/08 01:31:37;;;;;;;15.90;5.80;;;12.20;99.90;;;;;;5119977;28;20401;-69
2023/06/08 01:34:05;;;;;;;12.40;6.13;;;12.20;99.90;;;;;;5119660;28;20293;-76
2023/06/08 01:36:56;;;;;;;12.97;6.07;;;12.20;99.90;;;;;;5119973;28;20288;-69
2023/06/08 01:39:30;;;;;;;19.30;5.87;;;12.20;99.90;;;;;;5119906;28;20283;-69
2023/06/08 01:42:00;;;;;;;15.85;6.63;;;12.20;99.90;;;;;;5101902;28;20751;-69
2023/06/08 01:44:28;;;;;;;15.47;6.20;;;12.20;99.90;;;;;;5119776;28;20372;-69
2023/06/08 01:47:00;;;;;;;17.27;6.30;;;12.20;99.90;;;;;;5116353;28;20280;-69
2023/06/08 01:49:28;;;;;;;12.93;5.53;;;12.20;99.90;;;;;;5098279;28;20297;-69
2023/06/08 01:51:54;;;;;;;14.90;6.33;;;12.20;99.90;;;;;;5116941;28;20282;-69
2023/06/08 01:54:22;;;;;;;15.67;6.37;;;12.20;99.90;;;;;;5116656;28;20624;-69
2023/06/08 01:56:47;;;;;;;12.43;6.50;;;12.20;99.90;;;;;;5081577;28;20305;-69
2023/06/08 01:59:13;;;;;;;16.53;6.27;;;12.20;99.90;;;;;;5116938;28;20342;-69
2023/06/08 02:01:39;;;;;;;19.43;6.60;;;12.20;99.90;;;;;;5117204;28;20050;-69
2023/06/08 02:04:05;;;;;;;15.40;7.13;;;12.30;99.90;;;;;;5098650;28;20467;-69
2023/06/08 02:06:31;;;;;;;14.43;6.80;;;12.30;99.90;;;;;;5097983;28;20100;-69
2023/06/08 02:08:57;;;;;;;15.27;6.70;;;12.30;99.90;;;;;;5116120;28;20035;-69
2023/06/08 02:11:22;;;;;;;18.60;7.13;;;12.30;99.90;;;;;;5097685;28;20126;-69
2023/06/08 02:13:48;;;;;;;17.57;7.50;;;12.30;99.90;;;;;;5116046;28;20419;-69
2023/06/08 02:16:18;;;;;;;18.73;7.63;;;12.30;99.90;;;;;;5115834;28;20055;-69
2023/06/08 02:18:45;;;;;;;13.73;6.83;;;12.30;99.90;;;;;;5116112;28;20288;-69
2023/06/08 02:21:11;;;;;;;16.07;7.20;;;12.30;99.90;;;;;;5116572;28;20737;-70
2023/06/08 02:23:38;;;;;;;14.00;6.50;;;12.30;99.90;;;;;;5115929;28;20280;-69
2023/06/08 02:26:06;;;;;;;13.53;6.73;;;12.20;99.90;;;;;;5115782;28;20392;-69
2023/06/08 02:28:31;;;;;;;13.33;6.70;;;12.20;99.90;;;;;;5115630;28;20297;-69
2023/06/08 02:30:57;;;;;;;15.33;7.00;;;12.20;99.90;;;;;;5115488;28;20304;-69
2023/06/08 02:33:23;;;;;;;14.07;6.90;;;12.20;99.90;;;;;;5115759;28;20054;-69
2023/06/08 02:35:49;;;;;;;17.97;7.63;;;12.20;99.90;;;;;;5097742;28;20391;-69
2023/06/08 02:38:16;;;;;;;16.03;7.67;;;12.30;99.90;;;;;;5115630;28;20373;-69
2023/06/08 02:40:42;;;;;;;15.33;7.63;;;12.30;99.90;;;;;;5116144;28;20083;-69
2023/06/08 02:43:11;;;;;;;14.07;7.67;;;12.30;99.90;;;;;;5115496;28;20352;-69
2023/06/08 02:45:37;;;;;;;16.60;8.27;;;12.30;99.90;;;;;;5115759;28;20674;-69
2023/06/08 02:48:03;;;;;;;18.73;8.70;;;12.30;99.90;;;;;;5115908;28;20419;-69
2023/06/08 02:50:29;;;;;;;15.83;8.40;;;12.30;99.90;;;;;;5115370;28;20289;-69
2023/06/08 02:52:55;;;;;;;15.50;8.97;;;12.30;99.90;;;;;;5115418;28;20168;-69
2023/06/08 02:55:20;;;;;;;18.07;8.67;;;12.30;99.90;;;;;;5116081;28;20050;-69
2023/06/08 02:57:49;;;;;;;19.90;8.00;;;12.30;99.90;;;;;;5114645;28;20510;-69
2023/06/08 03:00:15;;;;;;;13.53;8.50;;;12.40;99.90;;;;;;5115809;28;20157;-77
2023/06/08 03:02:41;;;;;;;16.70;8.60;;;12.40;99.90;;;;;;5115432;28;20728;-69
2023/06/08 03:05:07;;;;;;;17.23;8.30;;;12.40;99.90;;;;;;5097961;28;20342;-69
2023/06/08 03:07:36;;;;;;;16.00;8.10;;;12.40;99.90;;;;;;5115136;28;20702;-69
2023/06/08 03:10:05;;;;;;;15.90;8.60;;;12.40;99.90;;;;;;5115772;28;20708;-69
2023/06/08 03:12:31;;;;;;;17.40;7.77;;;12.40;99.90;;;;;;5115054;28;20360;-70
2023/06/08 03:14:58;;;;;;;15.73;7.50;;;12.40;99.90;;;;;;5114969;28;20844;-70
2023/06/08 03:17:27;;;;;;;13.77;8.10;;;12.40;99.90;;;;;;5115551;28;20051;-70
2023/06/08 03:19:56;;;;;;;14.43;7.10;;;12.30;99.90;;;;;;5114907;28;20364;-68
2023/06/08 03:22:22;;;;;;;18.53;8.57;;;12.40;99.90;;;;;;5114796;28;20285;-72
2023/06/08 03:24:50;;;;;;;17.17;8.10;;;12.40;99.90;;;;;;5114794;28;20288;-69
2023/06/08 03:27:16;;;;;;;14.03;7.83;;;12.40;99.90;;;;;;5096532;28;20282;-70
2023/06/08 03:29:42;;;;;;;14.63;7.80;;;12.40;99.90;;;;;;5114853;28;20358;-70
2023/06/08 03:32:08;;;;;;;17.93;8.57;;;12.40;99.90;;;;;;5096904;28;20130;-69
2023/06/08 03:34:34;;;;;;;14.43;7.27;;;12.30;99.90;;;;;;5114541;28;20050;-69
2023/06/08 03:37:00;;;;;;;16.80;8.13;;;12.30;99.90;;;;;;5096211;28;20307;-69
2023/06/08 03:39:25;;;;;;;17.63;8.00;;;12.30;99.90;;;;;;5114068;28;20278;-71
2023/06/08 03:41:51;;;;;;;16.93;7.83;;;12.40;99.90;;;;;;5097164;28;20079;-70
2023/06/08 03:44:17;;;;;;;16.20;7.50;;;12.40;99.90;;;;;;5096198;28;20147;-69
2023/06/08 03:46:44;;;;;;;16.27;7.23;;;12.40;99.90;;;;;;5114367;28;20047;-69
2023/06/08 03:49:10;;;;;;;20.70;7.80;;;12.40;99.90;;;;;;5114258;28;20431;-70
2023/06/08 03:51:37;;;;;;;15.13;7.90;;;12.40;99.90;;;;;;5114762;28;20319;-70
2023/06/08 03:54:03;;;;;;;18.70;7.30;;;12.40;99.90;;;;;;5114273;28;20044;-69
2023/06/08 03:56:29;;;;;;;16.80;7.37;;;12.30;99.90;;;;;;5114245;28;20300;-70
2023/06/08 03:58:56;;;;;;;19.57;6.80;;;12.40;99.90;;;;;;5114478;28;20693;-69
2023/06/08 04:01:22;;;;;;;15.60;6.90;;;12.40;99.90;;;;;;5113750;28;20051;-76
2023/06/08 04:03:49;;;;;;;14.13;5.60;;;12.40;99.90;;;;;;5114128;28;20278;-70
2023/06/08 04:06:16;;;;;;;12.67;6.17;;;12.30;99.90;;;;;;5114154;28;20269;-70
2023/06/08 04:08:44;;;;;;;14.70;5.63;;;12.40;99.90;;;;;;5113450;28;20297;-70
2023/06/08 04:11:11;;;;;;;19.00;5.97;;;12.40;99.90;;;;;;5095637;28;20285;-70
2023/06/08 04:13:38;;;;;;;15.53;5.77;;;12.40;99.90;;;;;;5113939;28;20780;-70
2023/06/08 04:16:08;;;;;;;15.47;5.03;;;12.40;99.90;;;;;;5095680;28;20764;-70
2023/06/08 04:18:35;;;;;;;12.60;5.70;;;12.40;99.90;;;;;;5113883;28;20742;-70
2023/06/08 04:21:01;;;;;;;12.37;5.03;;;12.40;99.90;;;;;;5113585;28;20864;-70
2023/06/08 04:23:28;;;;;;;10.33;5.03;;;12.40;99.90;;;;;;5113883;28;20281;-70
2023/06/08 04:25:54;;;;;;;15.37;5.80;;;12.40;99.90;;;;;;5113489;28;20757;-69
2023/06/08 04:28:21;;;;;;;17.90;5.50;;;12.40;99.90;;;;;;5113880;28;20329;-70
2023/06/08 04:30:48;;;;;;;14.80;5.13;;;12.40;99.90;;;;;;5114476;28;20292;-70
2023/06/08 04:33:15;;;;;;;12.63;5.53;;;12.50;99.90;;;;;;5113690;28;20759;-70
2023/06/08 04:35:42;;;;;;;13.97;5.33;;;12.50;99.90;;;;;;5113370;28;20281;-70
2023/06/08 04:38:14;;;;;;;12.17;4.87;;;12.50;99.90;;;;;;5114217;28;20733;-70
2023/06/08 04:40:48;;;;;;;14.60;5.03;;;12.50;99.90;;;;;;5078851;28;20720;-70
2023/06/08 04:43:15;;;;;;;19.50;4.97;;;12.50;99.90;;;;;;5078963;28;20301;-70
2023/06/08 04:45:45;;;;;;;12.73;5.60;;;12.50;99.90;;;;;;5113618;28;20328;-70
2023/06/08 04:48:11;;;;;;;12.77;4.70;;;12.60;99.90;;;;;;5113800;28;20376;-70
2023/06/08 04:50:38;;;;;;;14.80;5.20;;;12.60;99.90;;;;;;5095563;28;20922;-70
2023/06/08 04:53:05;;;;;;;13.17;5.33;;;12.60;99.90;;;;;;5113452;28;20101;-70
2023/06/08 04:55:30;;;;;;;15.27;5.60;;;12.60;99.90;;;;;;5113462;28;20282;-71
2023/06/08 04:57:56;;;;;;;11.27;4.97;;;12.60;99.90;;;;;;5096077;28;20307;-70
2023/06/08 05:00:22;;;;;;;15.83;5.00;;;12.60;99.90;;;;;;5095373;28;20048;-70
2023/06/08 05:02:48;;;;;;;10.70;4.70;;;12.60;99.90;;;;;;5113731;28;20043;-70
2023/06/08 05:05:15;;;;;;;18.20;5.57;;;12.70;99.90;;;;;;5113421;28;20288;-70
2023/06/08 05:07:42;;;;;;;18.43;5.90;;;12.70;99.90;;;;;;5113327;28;20282;-70
2023/06/08 05:10:07;;;;;;;15.07;5.17;;;12.80;99.90;;;;;;5095150;28;20317;-70
2023/06/08 05:12:33;;;;;;;15.00;5.17;;;12.80;99.90;;;;;;5113284;28;20746;-70
2023/06/08 05:15:00;;;;;;;11.90;4.93;;;12.90;99.90;;;;;;5113506;28;20043;-70
2023/06/08 05:17:26;;;;;;;16.77;5.60;;;12.80;99.90;;;;;;5113289;28;20057;-70
2023/06/08 05:19:51;;;;;;;14.13;5.00;;;12.80;99.90;;;;;;5113728;28;20368;-70
2023/06/08 05:22:17;;;;;;;12.73;5.10;;;12.90;99.90;;;;;;5117155;28;20095;-70
2023/06/08 05:24:43;;;;;;;13.10;5.07;;;12.80;99.90;;;;;;5116791;28;20451;-70
2023/06/08 05:27:09;;;;;;;16.13;5.83;;;12.90;99.90;;;;;;5117826;28;20318;-70
2023/06/08 05:29:35;;;;;;;13.77;5.10;;;12.90;99.90;;;;;;5117037;28;20055;-70
2023/06/08 05:32:01;;;;;;;16.00;5.97;;;12.90;99.90;;;;;;5099291;28;20289;-70
2023/06/08 05:34:27;;;;;;;15.60;5.23;;;12.90;99.90;;;;;;5098991;28;20134;-70
2023/06/08 05:36:56;;;;;;;17.17;5.80;;;13.00;99.90;;;;;;5116893;28;20044;-70
2023/06/08 05:39:22;;;;;;;14.43;5.60;;;13.10;99.90;;;;;;5117378;28;20273;-69
2023/06/08 05:41:48;;;;;;;12.40;5.53;;;13.20;99.90;;;;;;5116767;28;20283;-70
2023/06/08 05:44:13;;;;;;;14.10;5.60;;;13.20;99.90;;;;;;5116772;28;20043;-70
2023/06/08 05:46:39;;;;;;;9.77;4.83;;;13.20;99.90;;;;;;5116661;28;20051;-70
2023/06/08 05:49:05;;;;;;;13.27;5.30;;;13.40;99.90;;;;;;5116677;28;20117;-70
2023/06/08 05:51:31;;;;;;;15.47;6.03;;;13.50;99.90;;;;;;5116657;28;20101;-70
2023/06/08 05:53:57;;;;;;;13.80;5.73;;;13.60;99.90;;;;;;5098988;28;20289;-70
2023/06/08 05:56:22;;;;;;;13.17;4.50;;;13.80;99.90;;;;;;5098391;28;20044;-70
2023/06/08 05:58:48;;;;;;;14.33;5.30;;;13.90;99.90;;;;;;5098350;28;20051;-70
2023/06/08 06:01:14;;;;;;;15.57;5.53;;;14.10;99.90;;;;;;5116476;28;20075;-70
2023/06/08 06:03:40;;;;;;;13.70;5.43;;;14.00;99.90;;;;;;5116425;28;20059;-70
2023/06/08 06:06:06;;;;;;;11.10;4.93;;;14.10;99.90;;;;;;5116347;28;20043;-69
2023/06/08 06:08:32;;;;;;;14.53;4.80;;;14.10;99.90;;;;;;5116187;28;20048;-69
2023/06/08 06:10:58;;;;;;;17.97;5.37;;;14.20;99.90;;;;;;5082286;28;20356;-70
2023/06/08 06:13:24;;;;;;;13.60;5.37;;;14.50;99.90;;;;;;5116212;28;20047;-70
2023/06/08 06:15:50;;;;;;;19.30;6.40;;;14.70;99.90;;;;;;5116126;28;20277;-70
2023/06/08 06:18:16;;;;;;;15.87;5.93;;;14.80;99.90;;;;;;5116418;28;20414;-69
2023/06/08 06:20:42;;;;;;;17.37;5.67;;;15.10;99.90;;;;;;5098056;28;20054;-70
2023/06/08 06:23:08;;;;;;;15.73;6.27;;;15.20;99.90;;;;;;5116038;28;20282;-69
2023/06/08 06:25:35;;;;;;;14.93;4.87;;;15.40;99.90;;;;;;5116043;28;20479;-70
2023/06/08 06:28:05;;;;;;;17.17;5.00;;;15.50;99.90;;;;;;5081143;28;20101;-70
2023/06/08 06:30:31;;;;;;;13.17;4.87;;;15.60;99.90;;;;;;5116274;28;20362;-70
2023/06/08 06:32:56;;;;;;;14.20;4.00;;;15.80;99.90;;;;;;5115139;28;20621;-70
2023/06/08 06:35:22;;;;;;;12.20;4.70;;;16.10;99.90;;;;;;5116511;28;20047;-70
2023/06/08 06:37:49;;;;;;;16.93;5.07;;;16.60;99.90;;;;;;5115817;28;20395;-70
2023/06/08 06:40:15;;;;;;;11.73;4.80;;;17.00;99.90;;;;;;5115707;28;20479;-70
2023/06/08 06:42:41;;;;;;;12.63;4.73;;;17.40;99.90;;;;;;5097664;28;20040;-78
2023/06/08 06:45:09;;;;;;;9.77;4.60;;;17.70;99.90;;;;;;5098391;28;20047;-70
2023/06/08 06:47:34;;;;;;;11.97;5.13;;;18.20;99.90;;;;;;5081770;28;20083;-70
2023/06/08 06:50:00;;;;;;;15.10;4.97;;;18.80;99.90;;;;;;5115403;28;20102;-70
2023/06/08 06:52:26;;;;;;;12.00;4.67;;;19.50;99.90;;;;;;5115446;28;20040;-70
2023/06/08 06:54:51;;;;;;;11.63;4.23;;;20.30;99.90;;;;;;5097286;28;20070;-70
2023/06/08 06:57:17;;;;;;;11.30;5.17;;;21.20;99.90;;;;;;5115339;28;20087;-70
2023/06/08 06:59:43;;;;;;;16.63;4.97;;;21.40;96.20;;;;;;5115393;28;20471;-78
2023/06/08 07:02:09;;;;;;;12.00;4.47;;;22.00;99.90;;;;;;5097263;28;20152;-71
2023/06/08 07:04:34;;;;;;;12.50;4.93;;;22.20;91.10;;;;;;5115247;28;20054;-71
2023/06/08 07:07:00;;;;;;;13.47;4.87;;;22.30;97.10;;;;;;5115618;28;20043;-71
2023/06/08 07:09:26;;;;;;;11.53;4.97;;;22.60;96.20;;;;;;5115087;28;20047;-72
2023/06/08 07:11:52;;;;;;;12.30;4.63;;;23.10;94.20;;;;;;5096952;28;20147;-69
2023/06/08 07:14:18;;;;;;;12.07;4.43;;;23.40;92.20;;;;;;5114695;28;20407;-71
2023/06/08 07:16:44;;;;;;;12.03;5.10;;;23.30;87.50;;;;;;5115256;28;20040;-70
2023/06/08 07:19:10;;;;;;;13.80;5.53;;;23.60;87.60;;;;;;5114920;28;20114;-71
2023/06/08 07:21:38;;;;;;;12.60;4.67;;;24.00;77.60;;;;;;5114916;28;20043;-72
2023/06/08 07:24:07;;;;;;;11.67;4.63;;;23.90;77.40;;;;;;5114803;28;20479;-72
2023/06/08 07:26:33;;;;;;;12.80;4.23;;;23.60;67.40;;;;;;5097092;28;20463;-71
2023/06/08 07:29:00;;;;;;;11.80;3.93;;;23.60;73.90;;;;;;5096367;28;20126;-71
2023/06/08 07:31:27;;;;;;;12.67;4.50;;;23.90;74.10;;;;;;5115262;28;20051;-72
2023/06/08 07:33:53;;;;;;;10.20;5.40;;;24.20;71.30;;;;;;5114897;28;20071;-72
2023/06/08 07:36:20;;;;;;;13.37;4.83;;;24.60;70.10;;;;;;5115032;28;20051;-72
2023/06/08 07:38:50;;;;;;;12.20;4.50;;;24.70;66.60;;;;;;5115057;28;20043;-72
2023/06/08 07:41:17;;;;;;;11.87;4.63;;;24.20;63.10;;;;;;5096535;28;20185;-72
2023/06/08 07:43:42;;;;;;;12.23;5.27;;;24.20;66.40;;;;;;5113637;28;20071;-72
2023/06/08 07:46:08;;;;;;;13.93;4.73;;;24.30;65.90;;;;;;5096486;28;20051;-72
2023/06/08 07:48:34;;;;;;;11.13;4.27;;;24.50;67.20;;;;;;5114296;28;20040;-72
2023/06/08 07:51:00;;;;;;;9.73;3.73;;;24.40;62.10;;;;;;5096132;28;20044;-72
2023/06/08 07:53:25;;;;;;;10.17;4.20;;;24.80;63.60;;;;;;5114501;28;20039;-72
2023/06/08 07:55:51;;;;;;;9.97;3.50;;;24.90;61.00;;;;;;5079444;28;20047;-74
2023/06/08 07:58:17;;;;;;;10.40;4.10;;;25.30;60.90;;;;;;5079515;28;20051;-73
2023/06/08 08:00:42;;;;;;;14.93;4.90;;;25.80;59.30;;;;;;5097007;28;20368;-71
2023/06/08 08:03:08;;;;;;;10.73;4.47;;;25.80;57.20;;;;;;5114107;28;20086;-72
2023/06/08 08:05:34;;;;;;;12.70;4.03;;;25.70;56.20;;;;;;5114533;28;20522;-71
2023/06/08 08:08:00;;;;;;;9.93;3.83;;;25.50;55.90;;;;;;5113979;28;20059;-71
2023/06/08 08:10:25;;;;;;;11.20;4.37;;;25.40;55.90;;;;;;5113966;28;20095;-71
2023/06/08 08:12:51;;;;;;;9.00;4.27;;;25.00;56.60;;;;;;5096003;28;20078;-71
2023/06/08 08:15:17;;;;;;;10.93;4.20;;;24.80;56.60;;;;;;5113592;28;20119;-71
2023/06/08 08:17:42;;;;;;;10.90;4.57;;;24.80;56.50;;;;;;5114118;28;20046;-71
2023/06/08 08:20:09;;;;;;;9.03;4.43;;;24.80;57.00;;;;;;5114672;28;20425;-71
2023/06/08 08:22:35;;;;;;;9.73;4.67;;;25.00;56.80;;;;;;5113858;28;20055;-71
2023/06/08 08:25:00;;;;;;;9.37;4.00;;;25.00;57.20;;;;;;5079803;28;20348;-72
2023/06/08 08:27:26;;;;;;;13.57;5.50;;;25.20;57.60;;;;;;5095951;28;20047;-72
2023/06/08 08:29:52;;;;;;;8.27;3.70;;;25.30;55.50;;;;;;5113449;28;20628;-70
2023/06/08 08:32:17;;;;;;;11.33;4.17;;;25.30;56.20;;;;;;5113637;28;20075;-72
2023/06/08 08:34:43;;;;;;;9.87;4.23;;;25.50;56.60;;;;;;5095710;28;20055;-71
2023/06/08 08:37:09;;;;;;;9.57;4.00;;;25.70;56.10;;;;;;5114108;28;20360;-72
2023/06/08 08:39:36;;;;;;;10.37;4.10;;;25.70;55.50;;;;;;5078797;28;20104;-72
2023/06/08 08:42:06;;;;;;;10.80;4.28;;;25.30;55.70;;;;;;5113601;28;20040;-73
2023/06/08 08:44:33;;;;;;;11.17;4.63;;;24.70;56.90;;;;;;5078801;28;20094;-72
2023/06/08 08:47:02;;;;;;;11.33;4.20;;;24.40;57.90;;;;;;5095664;28;20455;-74
2023/06/08 08:49:36;;;;;;;11.43;4.70;;;24.00;58.80;;;;;;5113800;28;20043;-73
2023/06/08 08:52:02;;;;;;;9.70;4.28;;;23.30;58.70;;;;;;5095420;28;20505;-70
2023/06/08 08:54:33;;;;;;;9.47;3.97;;;22.70;59.90;;;;;;5114310;28;20052;-71
2023/06/08 08:57:00;;;;;;;10.93;3.87;;;22.30;63.90;;;;;;5099376;28;20048;-74
2023/06/08 08:59:29;;;;;;;12.47;5.07;;;22.10;68.30;;;;;;5117947;28;20486;-72
2023/06/08 09:01:58;;;;;;;10.97;4.50;;;21.90;69.80;;;;;;5099596;28;20044;-69
2023/06/08 09:04:23;;;;;;;10.80;3.83;;;21.60;73.70;;;;;;5117564;28;20089;-69
2023/06/08 09:06:50;;;;;;;12.03;5.13;;;21.70;74.10;;;;;;5117533;28;20075;-69
2023/06/08 09:09:16;;;;;;;11.13;4.20;;;21.70;77.10;;;;;;5117044;28;20609;-68
2023/06/08 09:12:03;;;;;;;12.47;4.70;;;21.30;80.80;;;;;;5117062;28;20476;-68
2023/06/08 09:14:29;;;;;;;12.20;4.60;;;21.20;88.10;;;;;;5117390;28;20043;-67
2023/06/08 09:16:55;;;;;;;14.60;4.80;;;21.20;86.80;;;;;;5117866;28;20173;-68
2023/06/08 09:19:22;;;;;;;13.40;4.97;;;21.00;86.50;;;;;;5117298;28;20040;-67
2023/06/08 09:21:48;;;;;;;14.30;4.60;;;20.70;89.00;;;;;;5117315;28;20047;-69
2023/06/08 09:24:22;;;;;;;10.63;4.53;;;20.50;90.00;;;;;;5117228;28;20043;-68
2023/06/08 09:26:59;;;;;;;9.73;4.00;;;20.50;90.80;;;;;;5099509;28;20052;-68
2023/06/08 09:29:39;;;;;;;10.80;4.57;;;20.40;92.20;;;;;;5117218;28;20134;-68
2023/06/08 09:32:12;;;;;;;10.97;4.33;;;20.50;93.80;;;;;;5117120;28;20047;-68
2023/06/08 09:34:55;;;;;;;9.53;3.87;;;20.40;93.90;;;;;;5083034;28;20047;-67
2023/06/08 09:37:32;;;;;;;12.63;4.57;;;20.30;93.50;;;;;;5099094;28;20047;-68
2023/06/08 09:40:07;;;;;;;11.90;4.80;;;20.40;93.30;;;;;;5118061;28;20046;-68
2023/06/08 09:42:50;;;;;;;12.83;4.67;;;20.00;95.40;;;;;;5117543;28;20047;-68
2023/06/08 09:45:21;;;;;;;10.63;4.37;;;19.90;96.40;;;;;;5117668;28;20047;-68
2023/06/08 09:47:47;;;;;;;15.20;4.20;;;20.00;96.50;;;;;;5116903;28;20059;-69
2023/06/08 09:50:13;;;;;;;11.43;4.53;;;20.00;97.50;;;;;;5098363;28;20100;-69
2023/06/08 09:52:39;;;;;;;9.97;3.90;;;20.00;95.90;;;;;;5117247;28;20138;-69
2023/06/08 09:55:05;;;;;;;11.70;4.10;;;19.90;95.60;;;;;;5117115;28;20039;-69
2023/06/08 09:57:37;;;;;;;10.10;4.10;;;19.90;96.50;;;;;;5098444;28;20502;-68
2023/06/08 10:00:14;;;;;;;12.03;4.27;;;19.90;96.60;;;;;;5117192;28;20048;-67
2023/06/08 10:03:09;;;;;;;12.27;4.00;;;19.80;97.00;;;;;;5117161;28;20066;-69
2023/06/08 10:05:38;;;;;;;11.40;3.63;;;19.70;97.70;;;;;;5116517;28;20043;-68
2023/06/08 10:08:07;;;;;;;12.10;4.43;;;19.80;98.10;;;;;;5115178;28;20104;-70
2023/06/08 10:10:37;;;;;;;10.03;4.07;;;19.80;98.40;;;;;;5098577;28;20036;-74
2023/06/08 10:13:05;;;;;;;11.53;4.20;;;19.80;98.20;;;;;;5116230;28;20039;-72
2023/06/08 10:15:32;;;;;;;10.27;4.50;;;19.90;98.30;;;;;;5097912;28;20044;-72
2023/06/08 10:17:59;;;;;;;8.87;4.17;;;19.90;98.80;;;;;;5098103;28;20086;-70
2023/06/08 10:20:25;;;;;;;9.90;4.00;;;19.90;99.40;;;;;;5098443;28;20047;-70
2023/06/08 10:22:52;;;;;;;15.20;5.23;;;19.90;99.20;;;;;;5116604;28;20043;-71
2023/06/08 10:25:18;;;;;;;9.47;4.07;;;19.90;99.20;;;;;;5115905;28;20043;-74
2023/06/08 10:27:51;;;;;;;11.60;4.50;;;19.90;99.60;;;;;;5116338;28;20052;-71
2023/06/08 10:30:29;;;;;;;14.67;4.80;;;19.80;99.90;;;;;;5097685;28;20070;-71
2023/06/08 10:33:07;;;;;;;14.77;4.63;;;19.90;99.90;;;;;;5115960;28;20048;-71
2023/06/08 10:35:32;;;;;;;13.20;5.10;;;19.90;99.90;;;;;;5115924;28;20047;-70
2023/06/08 10:38:14;;;;;;;12.07;5.03;;;19.90;99.90;;;;;;5098449;28;20122;-70
2023/06/08 10:40:49;;;;;;;13.93;4.90;;;19.90;99.90;;;;;;5098085;28;20048;-70
2023/06/08 10:43:15;;;;;;;13.13;4.57;;;19.80;99.90;;;;;;5097716;28;20360;-68
2023/06/08 10:45:44;;;;;;;13.60;4.50;;;19.70;99.90;;;;;;5116233;28;20058;-71
2023/06/08 10:48:18;;;;;;;9.73;4.43;;;19.80;99.90;;;;;;5115558;28;20052;-79
2023/06/08 10:50:45;;;;;;;9.07;4.03;;;19.60;99.90;;;;;;5116389;28;20049;-71
2023/06/08 10:53:11;;;;;;;12.10;4.53;;;19.70;99.90;;;;;;5080709;28;20052;-77
2023/06/08 10:55:37;;;;;;;11.77;4.30;;;19.80;99.90;;;;;;5115442;28;20100;-70
2023/06/08 10:58:15;;;;;;;11.10;3.93;;;19.80;99.90;;;;;;5115919;28;20089;-70
2023/06/08 11:00:42;;;;;;;10.43;4.57;;;19.60;99.90;;;;;;5115691;28;20047;-71
2023/06/08 11:03:13;;;;;;;14.43;4.03;;;19.60;99.90;;;;;;5115303;28;20078;-71
2023/06/08 11:05:43;;;;;;;11.27;4.23;;;19.70;99.90;;;;;;5096721;28;20044;-71
2023/06/08 11:08:10;;;;;;;13.97;4.30;;;19.60;99.90;;;;;;5097923;28;20079;-70
2023/06/08 11:10:39;;;;;;;10.53;3.67;;;19.60;99.90;;;;;;5115764;28;20090;-74
2023/06/08 11:13:13;;;;;;;10.27;4.23;;;19.50;99.90;;;;;;5115052;28;20047;-72
2023/06/08 11:15:41;;;;;;;8.35;3.28;;;19.50;99.90;;;;;;5081077;28;20428;-73
2023/06/08 11:18:09;;;;;;;14.13;4.50;;;19.50;99.90;;;;;;5115251;28;20520;-72
2023/06/08 11:20:39;;;;;;;13.03;3.50;;;19.50;99.90;;;;;;5114874;28;20095;-72
2023/06/08 11:23:07;;;;;;;7.83;3.37;;;19.60;99.90;;;;;;5096999;28;20504;-72
2023/06/08 11:25:34;;;;;;;10.07;4.47;;;19.60;99.90;;;;;;5097352;28;20100;-71
2023/06/08 11:28:01;;;;;;;23.37;5.00;;;19.50;99.90;;;;;;5114777;28;20053;-72
2023/06/08 11:30:31;;;;;;;11.93;4.57;;;19.50;99.90;;;;;;5114270;28;20087;-72
2023/06/08 11:32:57;;;;;;;11.47;3.97;;;19.50;99.90;;;;;;5114782;28;20494;-72
2023/06/08 11:35:24;;;;;;;8.87;3.77;;;19.60;99.90;;;;;;5114379;28;20536;-72
2023/06/08 11:38:03;;;;;;;10.10;4.40;;;19.60;99.90;;;;;;5114514;28;20086;-72
2023/06/08 11:40:30;;;;;;;11.13;5.03;;;19.70;99.90;;;;;;5115405;28;20428;-72
2023/06/08 11:42:57;;;;;;;13.50;5.47;;;19.70;99.90;;;;;;5114462;28;20495;-72
2023/06/08 11:45:23;;;;;;;14.97;5.10;;;19.70;99.90;;;;;;5079617;28;20100;-72
2023/06/08 11:47:54;;;;;;;10.80;4.73;;;19.70;99.90;;;;;;5079467;28;20495;-72
2023/06/08 11:50:20;;;;;;;11.43;4.77;;;19.70;99.90;;;;;;5115385;28;20097;-73
2023/06/08 11:52:47;;;;;;;8.13;3.60;;;19.60;99.90;;;;;;5096348;28;20055;-72
2023/06/08 11:55:15;;;;;;;13.67;5.10;;;19.60;99.90;;;;;;5114242;28;20090;-72
2023/06/08 11:57:43;;;;;;;12.07;4.27;;;19.70;99.90;;;;;;5114519;28;20044;-71
2023/06/08 12:00:15;;;;;;;9.90;3.67;;;19.60;99.90;;;;;;5114217;28;20092;-72
2023/06/08 12:02:41;;;;;;;11.00;4.37;;;19.60;99.90;;;;;;5114220;28;20090;-72
2023/06/08 12:05:17;;;;;;;9.87;4.57;;;19.60;99.90;;;;;;5096218;28;20534;-72
2023/06/08 12:07:59;;;;;;;10.13;5.73;;;19.50;99.90;;;;;;5096660;28;20472;-72
2023/06/08 12:10:46;;;;;;;10.20;4.77;;;19.50;99.90;;;;;;5113995;28;20044;-72
2023/06/08 12:13:17;;;;;;;11.13;4.63;;;19.50;99.90;;;;;;5114601;28;20077;-71
2023/06/08 12:15:46;;;;;;;10.53;5.40;;;19.50;99.90;;;;;;5114019;28;20491;-71
2023/06/08 12:18:15;;;;;;;12.00;5.30;;;19.50;99.90;;;;;;5113894;28;20043;-71
2023/06/08 12:20:42;;;;;;;10.10;4.63;;;19.50;99.90;;;;;;5113922;28;20040;-71
2023/06/08 12:23:09;;;;;;;14.33;6.27;;;19.50;99.90;;;;;;5113928;28;20039;-72
2023/06/08 12:25:39;;;;;;;12.63;5.47;;;19.60;99.90;;;;;;5079335;28;20058;-71
2023/06/08 12:28:05;;;;;;;13.97;5.10;;;19.60;99.90;;;;;;5113941;28;20047;-73
2023/06/08 12:30:31;;;;;;;13.03;5.37;;;19.60;99.90;;;;;;5095111;28;20070;-72
2023/06/08 12:32:58;;;;;;;10.97;4.07;;;19.70;99.90;;;;;;5113773;28;20064;-73
2023/06/08 12:35:24;;;;;;;13.40;4.53;;;19.70;99.90;;;;;;5113338;28;20491;-73
2023/06/08 12:37:50;;;;;;;12.77;4.87;;;19.60;99.90;;;;;;5114199;28;20097;-72
2023/06/08 12:40:19;;;;;;;9.40;4.07;;;19.60;99.90;;;;;;5113626;28;20051;-72
2023/06/08 12:42:49;;;;;;;10.30;4.10;;;19.60;99.90;;;;;;5113670;28;20054;-73